Accueil
METAR-TAF:

METAR-TAF

Aéroports :

Aéroport international Saint-Gall-Altenrhein

Saint-Gall, Suisse

latitude: 47-29-06N, longitude: 009-33-43E, altitude: 398 m

Observation

Le bulletin a été fait il y a 12 minutes, à 02:50 UTC
Vent 3 kt de direction variable
Température 13°C
Humidité 88%
Pression 1016 hPa
Visibilité 10 km ou plus
Quelques nuages à une hauteur de 6000 ft

METAR: LSZR 020250Z AUTO VRB03KT 9999 FEW060 13/11 Q1016

Heure: 05:02 (03:02 UTC)

Prévision

Le bulletin a été fait il y a 37 minutes, à 02:25 UTC
Prévision valable du 02 à 03 UTC au 02 à 12 UTC
Vent 2 kt de direction variable
Visibilité 10 km ou plus
Nuages épars à une hauteur de 9500 ft
Temporairement
du 02 à 10 UTC au 02 à 12 UTC
Quelques nuages à une hauteur de 4000 ft, Cumulus congestus.

TAF: LSZR 020225Z 0203/0212 VRB02KT 9999 SCT095 TEMPO 0210/0212 FEW040TCU

Observations et prévisions météorologiques de plus de 4000 aéroports (messages METAR et TAF).

Les stations disponibles sont représentées par des disques jaunes et rouges sur la carte.

Passer la souris dessus pour voir le nom de la station.

Cliquer dessus pour voir les observations et prévisions météorologiques.

Pour changer de carte: cliquez sur les boutons verts avec une croix noire pour zoomer, sur le bouton vert avec un tiret pour effectuer un zoom arrière, ou sur les flèches vertes pour les cartes adjacentes.


METAR-TAF: